Terminal Aerodrome Forecast
Issued by NWS

Home | Current Version | Previous Version | Text Only | Print | Product List | Glossary On
Versions: 1 2 3 4 5 6 7 8 9 10 11 12 13 14 15 16 17 18 19 20 21 22 23 24 25
000
FTUS45 KLKN 021120
TAFWMC
TAF
KWMC 021120Z 0212/0312 16012G20KT P6SM BKN150 OVC200
     FM021800 27015G25KT P6SM VCTS SCT100CB OVC200
     FM030300 20010KT P6SM BKN100 OVC200=

USA.gov is the U.S. government's official web portal to all federal, state and local government web resources and services.